sensor_id;sensor_type;location;lat;lon;timestamp;P1;durP1;ratioP1;P2;durP2;ratioP2
60464;SDS011;46314;52.392;9.758;2023-03-23T00:01:54;3.03;;;1.83;;
60464;SDS011;46314;52.392;9.758;2023-03-23T00:04:20;3.90;;;2.30;;
60464;SDS011;46314;52.392;9.758;2023-03-23T00:06:45;6.00;;;2.25;;
60464;SDS011;46314;52.392;9.758;2023-03-23T00:09:11;4.20;;;2.25;;
60464;SDS011;46314;52.392;9.758;2023-03-23T00:11:37;4.47;;;2.15;;
60464;SDS011;46314;52.392;9.758;2023-03-23T00:14:03;5.13;;;2.65;;
60464;SDS011;46314;52.392;9.758;2023-03-23T00:16:29;5.28;;;2.95;;
60464;SDS011;46314;52.392;9.758;2023-03-23T00:18:57;4.28;;;2.47;;
60464;SDS011;46314;52.392;9.758;2023-03-23T00:21:24;5.10;;;2.75;;
60464;SDS011;46314;52.392;9.758;2023-03-23T00:23:50;5.80;;;2.83;;
60464;SDS011;46314;52.392;9.758;2023-03-23T00:26:16;5.25;;;2.80;;
60464;SDS011;46314;52.392;9.758;2023-03-23T00:28:41;5.47;;;2.60;;
60464;SDS011;46314;52.392;9.758;2023-03-23T00:31:07;3.88;;;2.60;;
60464;SDS011;46314;52.392;9.758;2023-03-23T00:33:35;5.32;;;3.15;;
60464;SDS011;46314;52.392;9.758;2023-03-23T00:36:03;3.38;;;2.58;;
60464;SDS011;46314;52.392;9.758;2023-03-23T00:38:29;4.18;;;2.45;;
60464;SDS011;46314;52.392;9.758;2023-03-23T00:40:55;3.65;;;2.40;;
60464;SDS011;46314;52.392;9.758;2023-03-23T00:43:20;4.63;;;2.95;;
60464;SDS011;46314;52.392;9.758;2023-03-23T00:45:45;5.18;;;3.20;;
60464;SDS011;46314;52.392;9.758;2023-03-23T00:48:11;5.28;;;3.08;;
60464;SDS011;46314;52.392;9.758;2023-03-23T00:50:36;4.72;;;2.65;;
60464;SDS011;46314;52.392;9.758;2023-03-23T00:53:03;4.97;;;3.03;;
60464;SDS011;46314;52.392;9.758;2023-03-23T00:55:28;5.28;;;3.13;;
60464;SDS011;46314;52.392;9.758;2023-03-23T00:57:54;7.15;;;2.95;;
60464;SDS011;46314;52.392;9.758;2023-03-23T01:00:19;6.30;;;3.10;;
60464;SDS011;46314;52.392;9.758;2023-03-23T01:02:45;4.68;;;2.50;;
60464;SDS011;46314;52.392;9.758;2023-03-23T01:05:10;4.43;;;2.80;;
60464;SDS011;46314;52.392;9.758;2023-03-23T01:07:36;4.63;;;2.67;;
60464;SDS011;46314;52.392;9.758;2023-03-23T01:10:03;3.97;;;2.60;;
60464;SDS011;46314;52.392;9.758;2023-03-23T01:12:30;4.65;;;2.17;;
60464;SDS011;46314;52.392;9.758;2023-03-23T01:14:55;3.92;;;2.70;;
60464;SDS011;46314;52.392;9.758;2023-03-23T01:17:21;5.88;;;3.10;;
60464;SDS011;46314;52.392;9.758;2023-03-23T01:19:46;5.30;;;3.08;;
60464;SDS011;46314;52.392;9.758;2023-03-23T01:22:11;5.10;;;3.00;;
60464;SDS011;46314;52.392;9.758;2023-03-23T01:24:37;3.85;;;2.50;;
60464;SDS011;46314;52.392;9.758;2023-03-23T01:27:04;5.00;;;3.15;;
60464;SDS011;46314;52.392;9.758;2023-03-23T01:29:29;3.35;;;2.78;;
60464;SDS011;46314;52.392;9.758;2023-03-23T01:31:55;4.38;;;2.67;;
60464;SDS011;46314;52.392;9.758;2023-03-23T01:34:20;7.55;;;3.05;;
60464;SDS011;46314;52.392;9.758;2023-03-23T01:36:45;4.10;;;3.33;;
60464;SDS011;46314;52.392;9.758;2023-03-23T01:39:11;4.35;;;3.13;;
60464;SDS011;46314;52.392;9.758;2023-03-23T01:41:36;3.72;;;3.05;;
60464;SDS011;46314;52.392;9.758;2023-03-23T01:44:03;4.80;;;2.80;;
60464;SDS011;46314;52.392;9.758;2023-03-23T01:46:30;4.00;;;2.67;;
60464;SDS011;46314;52.392;9.758;2023-03-23T01:48:58;5.18;;;3.08;;
60464;SDS011;46314;52.392;9.758;2023-03-23T01:51:26;4.07;;;2.95;;
60464;SDS011;46314;52.392;9.758;2023-03-23T01:53:53;6.25;;;2.80;;
60464;SDS011;46314;52.392;9.758;2023-03-23T01:56:22;3.97;;;2.95;;
60464;SDS011;46314;52.392;9.758;2023-03-23T01:58:50;6.28;;;3.03;;
60464;SDS011;46314;52.392;9.758;2023-03-23T02:01:19;3.92;;;2.97;;
60464;SDS011;46314;52.392;9.758;2023-03-23T02:03:45;4.25;;;2.63;;
60464;SDS011;46314;52.392;9.758;2023-03-23T02:06:11;9.77;;;3.00;;
60464;SDS011;46314;52.392;9.758;2023-03-23T02:08:37;5.93;;;2.90;;
60464;SDS011;46314;52.392;9.758;2023-03-23T02:11:11;3.70;;;2.50;;
60464;SDS011;46314;52.392;9.758;2023-03-23T02:13:37;3.47;;;2.13;;
60464;SDS011;46314;52.392;9.758;2023-03-23T02:16:03;5.40;;;2.42;;
60464;SDS011;46314;52.392;9.758;2023-03-23T02:18:40;2.97;;;2.38;;
60464;SDS011;46314;52.392;9.758;2023-03-23T02:21:25;6.40;;;2.95;;
60464;SDS011;46314;52.392;9.758;2023-03-23T02:24:09;3.83;;;2.42;;
60464;SDS011;46314;52.392;9.758;2023-03-23T02:26:48;5.72;;;2.30;;
60464;SDS011;46314;52.392;9.758;2023-03-23T02:29:23;6.55;;;2.40;;
60464;SDS011;46314;52.392;9.758;2023-03-23T02:32:11;4.45;;;2.28;;
60464;SDS011;46314;52.392;9.758;2023-03-23T02:34:43;4.15;;;2.28;;
60464;SDS011;46314;52.392;9.758;2023-03-23T02:37:13;3.65;;;2.50;;
60464;SDS011;46314;52.392;9.758;2023-03-23T02:39:44;7.70;;;2.80;;
60464;SDS011;46314;52.392;9.758;2023-03-23T02:42:13;3.63;;;2.80;;
60464;SDS011;46314;52.392;9.758;2023-03-23T02:44:42;3.60;;;2.38;;
60464;SDS011;46314;52.392;9.758;2023-03-23T02:47:11;3.55;;;2.40;;
60464;SDS011;46314;52.392;9.758;2023-03-23T02:49:40;3.42;;;2.65;;
60464;SDS011;46314;52.392;9.758;2023-03-23T02:52:10;4.70;;;3.13;;
60464;SDS011;46314;52.392;9.758;2023-03-23T02:54:39;4.43;;;2.50;;
60464;SDS011;46314;52.392;9.758;2023-03-23T02:57:07;5.32;;;2.38;;
60464;SDS011;46314;52.392;9.758;2023-03-23T02:59:33;2.90;;;2.33;;
60464;SDS011;46314;52.392;9.758;2023-03-23T03:02:04;5.22;;;2.75;;
60464;SDS011;46314;52.392;9.758;2023-03-23T03:04:31;6.63;;;2.95;;
60464;SDS011;46314;52.392;9.758;2023-03-23T03:07:02;6.05;;;2.70;;
60464;SDS011;46314;52.392;9.758;2023-03-23T03:09:42;5.05;;;3.00;;
60464;SDS011;46314;52.392;9.758;2023-03-23T03:12:15;5.93;;;2.50;;
60464;SDS011;46314;52.392;9.758;2023-03-23T03:14:49;3.45;;;3.05;;
60464;SDS011;46314;52.392;9.758;2023-03-23T03:17:21;4.07;;;2.58;;
60464;SDS011;46314;52.392;9.758;2023-03-23T03:19:50;6.18;;;3.15;;
60464;SDS011;46314;52.392;9.758;2023-03-23T03:22:20;3.80;;;2.72;;
60464;SDS011;46314;52.392;9.758;2023-03-23T03:24:48;4.88;;;2.80;;
60464;SDS011;46314;52.392;9.758;2023-03-23T03:27:16;3.42;;;2.72;;
60464;SDS011;46314;52.392;9.758;2023-03-23T03:29:46;6.65;;;2.90;;
60464;SDS011;46314;52.392;9.758;2023-03-23T03:32:15;4.55;;;3.10;;
60464;SDS011;46314;52.392;9.758;2023-03-23T03:34:43;4.32;;;3.08;;
60464;SDS011;46314;52.392;9.758;2023-03-23T03:37:08;4.00;;;2.90;;
60464;SDS011;46314;52.392;9.758;2023-03-23T03:39:36;3.80;;;3.17;;
60464;SDS011;46314;52.392;9.758;2023-03-23T03:42:04;5.18;;;3.47;;
60464;SDS011;46314;52.392;9.758;2023-03-23T03:44:30;4.78;;;3.17;;
60464;SDS011;46314;52.392;9.758;2023-03-23T03:46:55;5.10;;;3.20;;
60464;SDS011;46314;52.392;9.758;2023-03-23T03:49:21;3.83;;;2.90;;
60464;SDS011;46314;52.392;9.758;2023-03-23T03:51:46;5.03;;;2.78;;
60464;SDS011;46314;52.392;9.758;2023-03-23T03:54:11;4.63;;;2.85;;
60464;SDS011;46314;52.392;9.758;2023-03-23T03:56:37;4.55;;;3.20;;
60464;SDS011;46314;52.392;9.758;2023-03-23T03:59:04;4.20;;;2.88;;
60464;SDS011;46314;52.392;9.758;2023-03-23T04:01:29;4.25;;;2.58;;
60464;SDS011;46314;52.392;9.758;2023-03-23T04:03:55;5.15;;;3.42;;
60464;SDS011;46314;52.392;9.758;2023-03-23T04:06:20;5.00;;;3.05;;
60464;SDS011;46314;52.392;9.758;2023-03-23T04:08:46;4.82;;;2.90;;
60464;SDS011;46314;52.392;9.758;2023-03-23T04:11:12;5.22;;;2.63;;
60464;SDS011;46314;52.392;9.758;2023-03-23T04:13:39;5.72;;;2.88;;
60464;SDS011;46314;52.392;9.758;2023-03-23T04:16:06;3.03;;;2.58;;
60464;SDS011;46314;52.392;9.758;2023-03-23T04:18:32;4.63;;;3.00;;
60464;SDS011;46314;52.392;9.758;2023-03-23T04:21:00;2.90;;;2.33;;
60464;SDS011;46314;52.392;9.758;2023-03-23T04:23:27;4.22;;;2.97;;
60464;SDS011;46314;52.392;9.758;2023-03-23T04:25:54;5.93;;;3.28;;
60464;SDS011;46314;52.392;9.758;2023-03-23T04:28:19;10.50;;;2.90;;
60464;SDS011;46314;52.392;9.758;2023-03-23T04:30:45;5.93;;;2.40;;
60464;SDS011;46314;52.392;9.758;2023-03-23T04:33:12;4.30;;;2.70;;
60464;SDS011;46314;52.392;9.758;2023-03-23T04:35:38;2.70;;;2.38;;
60464;SDS011;46314;52.392;9.758;2023-03-23T04:38:03;4.03;;;2.58;;
60464;SDS011;46314;52.392;9.758;2023-03-23T04:40:29;4.57;;;2.20;;
60464;SDS011;46314;52.392;9.758;2023-03-23T04:42:54;3.97;;;2.33;;
60464;SDS011;46314;52.392;9.758;2023-03-23T04:45:20;3.30;;;2.28;;
60464;SDS011;46314;52.392;9.758;2023-03-23T04:47:46;2.20;;;1.92;;
60464;SDS011;46314;52.392;9.758;2023-03-23T04:50:14;4.28;;;2.15;;
60464;SDS011;46314;52.392;9.758;2023-03-23T04:52:40;5.15;;;2.50;;
60464;SDS011;46314;52.392;9.758;2023-03-23T04:55:06;5.00;;;2.35;;
60464;SDS011;46314;52.392;9.758;2023-03-23T04:57:33;2.78;;;2.10;;
60464;SDS011;46314;52.392;9.758;2023-03-23T04:59:58;3.17;;;2.00;;
60464;SDS011;46314;52.392;9.758;2023-03-23T05:02:24;2.83;;;2.20;;
60464;SDS011;46314;52.392;9.758;2023-03-23T05:04:49;2.80;;;2.05;;
60464;SDS011;46314;52.392;9.758;2023-03-23T05:07:16;3.50;;;2.40;;
60464;SDS011;46314;52.392;9.758;2023-03-23T05:09:41;3.45;;;2.55;;
60464;SDS011;46314;52.392;9.758;2023-03-23T05:12:12;3.75;;;2.47;;
60464;SDS011;46314;52.392;9.758;2023-03-23T05:14:39;2.78;;;1.80;;
60464;SDS011;46314;52.392;9.758;2023-03-23T05:17:05;3.88;;;2.17;;
60464;SDS011;46314;52.392;9.758;2023-03-23T05:19:31;3.20;;;2.40;;
60464;SDS011;46314;52.392;9.758;2023-03-23T05:21:56;5.22;;;2.30;;
60464;SDS011;46314;52.392;9.758;2023-03-23T05:24:23;2.75;;;2.13;;
60464;SDS011;46314;52.392;9.758;2023-03-23T05:26:49;3.47;;;1.90;;
60464;SDS011;46314;52.392;9.758;2023-03-23T05:29:14;3.78;;;2.38;;
60464;SDS011;46314;52.392;9.758;2023-03-23T05:31:39;3.50;;;1.55;;
60464;SDS011;46314;52.392;9.758;2023-03-23T05:34:05;2.70;;;1.83;;
60464;SDS011;46314;52.392;9.758;2023-03-23T05:36:30;2.40;;;1.50;;
60464;SDS011;46314;52.392;9.758;2023-03-23T05:38:56;5.28;;;2.53;;
60464;SDS011;46314;52.392;9.758;2023-03-23T05:41:23;2.42;;;1.77;;
60464;SDS011;46314;52.392;9.758;2023-03-23T05:43:48;3.55;;;1.77;;
60464;SDS011;46314;52.392;9.758;2023-03-23T05:46:13;3.97;;;2.13;;
60464;SDS011;46314;52.392;9.758;2023-03-23T05:48:39;3.30;;;2.08;;
60464;SDS011;46314;52.392;9.758;2023-03-23T05:51:04;4.63;;;1.90;;
60464;SDS011;46314;52.392;9.758;2023-03-23T05:53:29;3.08;;;2.17;;
60464;SDS011;46314;52.392;9.758;2023-03-23T05:55:57;3.58;;;1.85;;
60464;SDS011;46314;52.392;9.758;2023-03-23T05:58:25;3.55;;;2.10;;
60464;SDS011;46314;52.392;9.758;2023-03-23T06:00:50;3.08;;;1.80;;
60464;SDS011;46314;52.392;9.758;2023-03-23T06:03:15;2.53;;;1.55;;
60464;SDS011;46314;52.392;9.758;2023-03-23T06:05:41;2.85;;;1.70;;
60464;SDS011;46314;52.392;9.758;2023-03-23T06:08:07;4.15;;;1.88;;
60464;SDS011;46314;52.392;9.758;2023-03-23T06:10:32;2.80;;;2.03;;
60464;SDS011;46314;52.392;9.758;2023-03-23T06:12:58;2.63;;;2.08;;
60464;SDS011;46314;52.392;9.758;2023-03-23T06:15:24;1.80;;;1.60;;
60464;SDS011;46314;52.392;9.758;2023-03-23T06:17:50;3.45;;;1.90;;
60464;SDS011;46314;52.392;9.758;2023-03-23T06:20:15;2.53;;;1.73;;
60464;SDS011;46314;52.392;9.758;2023-03-23T06:22:40;2.00;;;1.33;;
60464;SDS011;46314;52.392;9.758;2023-03-23T06:25:07;2.45;;;1.50;;
60464;SDS011;46314;52.392;9.758;2023-03-23T06:27:33;2.15;;;1.58;;
60464;SDS011;46314;52.392;9.758;2023-03-23T06:29:59;2.33;;;1.80;;
60464;SDS011;46314;52.392;9.758;2023-03-23T06:32:25;2.67;;;1.67;;
60464;SDS011;46314;52.392;9.758;2023-03-23T06:34:54;5.50;;;2.03;;
60464;SDS011;46314;52.392;9.758;2023-03-23T06:37:20;3.05;;;1.92;;
60464;SDS011;46314;52.392;9.758;2023-03-23T06:39:45;2.03;;;1.40;;
60464;SDS011;46314;52.392;9.758;2023-03-23T06:42:11;3.38;;;1.30;;
60464;SDS011;46314;52.392;9.758;2023-03-23T06:44:37;2.78;;;1.50;;
60464;SDS011;46314;52.392;9.758;2023-03-23T06:47:02;1.63;;;1.50;;
60464;SDS011;46314;52.392;9.758;2023-03-23T06:49:29;2.00;;;1.65;;
60464;SDS011;46314;52.392;9.758;2023-03-23T06:51:54;1.90;;;1.33;;
60464;SDS011;46314;52.392;9.758;2023-03-23T06:54:20;2.00;;;1.42;;
60464;SDS011;46314;52.392;9.758;2023-03-23T06:56:45;4.07;;;1.80;;
60464;SDS011;46314;52.392;9.758;2023-03-23T06:59:11;2.67;;;1.42;;
60464;SDS011;46314;52.392;9.758;2023-03-23T07:01:36;3.95;;;1.50;;
60464;SDS011;46314;52.392;9.758;2023-03-23T07:04:01;2.25;;;2.03;;
60464;SDS011;46314;52.392;9.758;2023-03-23T07:06:28;2.25;;;1.65;;
60464;SDS011;46314;52.392;9.758;2023-03-23T07:08:54;6.05;;;1.75;;
60464;SDS011;46314;52.392;9.758;2023-03-23T07:11:19;2.40;;;1.95;;
60464;SDS011;46314;52.392;9.758;2023-03-23T07:13:45;2.13;;;1.60;;
60464;SDS011;46314;52.392;9.758;2023-03-23T07:16:10;2.58;;;1.58;;
60464;SDS011;46314;52.392;9.758;2023-03-23T07:18:35;2.63;;;1.85;;
60464;SDS011;46314;52.392;9.758;2023-03-23T07:21:01;2.70;;;1.58;;
60464;SDS011;46314;52.392;9.758;2023-03-23T07:23:28;2.35;;;1.65;;
60464;SDS011;46314;52.392;9.758;2023-03-23T07:25:54;2.75;;;1.80;;
60464;SDS011;46314;52.392;9.758;2023-03-23T07:28:19;2.03;;;1.40;;
60464;SDS011;46314;52.392;9.758;2023-03-23T07:30:45;3.45;;;1.80;;
60464;SDS011;46314;52.392;9.758;2023-03-23T07:33:10;1.45;;;1.30;;
60464;SDS011;46314;52.392;9.758;2023-03-23T07:35:36;3.17;;;1.58;;
60464;SDS011;46314;52.392;9.758;2023-03-23T07:38:02;2.25;;;1.35;;
60464;SDS011;46314;52.392;9.758;2023-03-23T07:40:29;2.55;;;1.60;;
60464;SDS011;46314;52.392;9.758;2023-03-23T07:42:56;3.35;;;1.80;;
60464;SDS011;46314;52.392;9.758;2023-03-23T07:45:22;3.00;;;1.40;;
60464;SDS011;46314;52.392;9.758;2023-03-23T07:47:48;3.22;;;1.63;;
60464;SDS011;46314;52.392;9.758;2023-03-23T07:50:13;3.53;;;2.00;;
60464;SDS011;46314;52.392;9.758;2023-03-23T07:52:39;3.33;;;2.10;;
60464;SDS011;46314;52.392;9.758;2023-03-23T07:55:06;3.35;;;1.60;;
60464;SDS011;46314;52.392;9.758;2023-03-23T07:57:34;2.97;;;1.95;;
60464;SDS011;46314;52.392;9.758;2023-03-23T07:59:59;4.10;;;1.85;;
60464;SDS011;46314;52.392;9.758;2023-03-23T08:02:25;5.60;;;1.73;;
60464;SDS011;46314;52.392;9.758;2023-03-23T08:04:50;3.03;;;1.90;;
60464;SDS011;46314;52.392;9.758;2023-03-23T08:07:16;4.05;;;2.40;;
60464;SDS011;46314;52.392;9.758;2023-03-23T08:09:42;3.13;;;1.60;;
60464;SDS011;46314;52.392;9.758;2023-03-23T08:12:07;3.33;;;2.25;;
60464;SDS011;46314;52.392;9.758;2023-03-23T08:14:34;4.00;;;2.35;;
60464;SDS011;46314;52.392;9.758;2023-03-23T08:16:59;3.85;;;2.28;;
60464;SDS011;46314;52.392;9.758;2023-03-23T08:19:25;3.20;;;2.35;;
60464;SDS011;46314;52.392;9.758;2023-03-23T08:21:50;5.57;;;2.05;;
60464;SDS011;46314;52.392;9.758;2023-03-23T08:24:15;3.72;;;2.10;;
60464;SDS011;46314;52.392;9.758;2023-03-23T08:26:41;4.10;;;2.22;;
60464;SDS011;46314;52.392;9.758;2023-03-23T08:29:06;4.50;;;1.85;;
60464;SDS011;46314;52.392;9.758;2023-03-23T08:31:34;7.95;;;2.55;;
60464;SDS011;46314;52.392;9.758;2023-03-23T08:33:59;6.97;;;2.30;;
60464;SDS011;46314;52.392;9.758;2023-03-23T08:36:25;6.70;;;2.88;;
60464;SDS011;46314;52.392;9.758;2023-03-23T08:38:50;3.53;;;1.95;;
60464;SDS011;46314;52.392;9.758;2023-03-23T08:41:16;3.60;;;2.03;;
60464;SDS011;46314;52.392;9.758;2023-03-23T08:43:41;4.53;;;1.98;;
60464;SDS011;46314;52.392;9.758;2023-03-23T08:46:06;4.18;;;2.35;;
60464;SDS011;46314;52.392;9.758;2023-03-23T08:48:33;3.55;;;2.38;;
60464;SDS011;46314;52.392;9.758;2023-03-23T08:50:58;4.82;;;2.30;;
60464;SDS011;46314;52.392;9.758;2023-03-23T08:53:24;4.10;;;2.00;;
60464;SDS011;46314;52.392;9.758;2023-03-23T08:55:49;4.88;;;2.10;;
60464;SDS011;46314;52.392;9.758;2023-03-23T08:58:15;5.10;;;2.42;;
60464;SDS011;46314;52.392;9.758;2023-03-23T09:00:40;4.35;;;2.03;;
60464;SDS011;46314;52.392;9.758;2023-03-23T09:03:05;4.82;;;2.72;;
60464;SDS011;46314;52.392;9.758;2023-03-23T09:05:32;4.68;;;2.17;;
60464;SDS011;46314;52.392;9.758;2023-03-23T09:07:58;5.18;;;2.08;;
60464;SDS011;46314;52.392;9.758;2023-03-23T09:10:23;4.90;;;2.80;;
60464;SDS011;46314;52.392;9.758;2023-03-23T09:12:50;4.53;;;2.15;;
60464;SDS011;46314;52.392;9.758;2023-03-23T09:15:17;5.45;;;2.28;;
60464;SDS011;46314;52.392;9.758;2023-03-23T09:17:44;4.50;;;2.03;;
60464;SDS011;46314;52.392;9.758;2023-03-23T09:20:12;3.60;;;2.10;;
60464;SDS011;46314;52.392;9.758;2023-03-23T09:22:42;4.93;;;2.45;;
60464;SDS011;46314;52.392;9.758;2023-03-23T09:25:10;6.82;;;3.05;;
60464;SDS011;46314;52.392;9.758;2023-03-23T09:27:37;5.97;;;3.30;;
60464;SDS011;46314;52.392;9.758;2023-03-23T09:30:03;4.57;;;2.25;;
60464;SDS011;46314;52.392;9.758;2023-03-23T09:32:31;5.32;;;2.75;;
60464;SDS011;46314;52.392;9.758;2023-03-23T09:34:57;6.05;;;2.22;;
60464;SDS011;46314;52.392;9.758;2023-03-23T09:37:22;7.32;;;2.33;;
60464;SDS011;46314;52.392;9.758;2023-03-23T09:39:49;7.45;;;2.70;;
60464;SDS011;46314;52.392;9.758;2023-03-23T09:42:18;7.72;;;2.45;;
60464;SDS011;46314;52.392;9.758;2023-03-23T09:44:57;19.15;;;4.35;;
60464;SDS011;46314;52.392;9.758;2023-03-23T09:47:34;4.50;;;2.28;;
60464;SDS011;46314;52.392;9.758;2023-03-23T09:50:07;6.30;;;2.50;;
60464;SDS011;46314;52.392;9.758;2023-03-23T09:52:36;4.13;;;2.38;;
60464;SDS011;46314;52.392;9.758;2023-03-23T09:55:08;5.40;;;2.03;;
60464;SDS011;46314;52.392;9.758;2023-03-23T09:57:38;6.00;;;2.42;;
60464;SDS011;46314;52.392;9.758;2023-03-23T10:00:11;4.20;;;2.67;;
60464;SDS011;46314;52.392;9.758;2023-03-23T10:02:41;7.55;;;2.25;;
60464;SDS011;46314;52.392;9.758;2023-03-23T10:05:22;6.68;;;2.25;;
60464;SDS011;46314;52.392;9.758;2023-03-23T10:07:53;10.02;;;2.83;;
60464;SDS011;46314;52.392;9.758;2023-03-23T10:10:20;7.57;;;2.60;;
60464;SDS011;46314;52.392;9.758;2023-03-23T10:12:51;6.88;;;2.50;;
60464;SDS011;46314;52.392;9.758;2023-03-23T10:15:21;7.00;;;2.35;;
60464;SDS011;46314;52.392;9.758;2023-03-23T10:17:53;6.65;;;1.90;;
60464;SDS011;46314;52.392;9.758;2023-03-23T10:20:30;5.07;;;2.45;;
60464;SDS011;46314;52.392;9.758;2023-03-23T10:23:04;7.00;;;2.45;;
60464;SDS011;46314;52.392;9.758;2023-03-23T10:25:40;4.45;;;2.28;;
60464;SDS011;46314;52.392;9.758;2023-03-23T10:28:09;6.07;;;2.72;;
60464;SDS011;46314;52.392;9.758;2023-03-23T10:30:37;5.50;;;2.25;;
60464;SDS011;46314;52.392;9.758;2023-03-23T10:33:08;5.43;;;2.38;;
60464;SDS011;46314;52.392;9.758;2023-03-23T10:35:41;8.38;;;2.60;;
60464;SDS011;46314;52.392;9.758;2023-03-23T10:38:13;4.25;;;2.20;;
60464;SDS011;46314;52.392;9.758;2023-03-23T10:40:47;10.80;;;2.65;;
60464;SDS011;46314;52.392;9.758;2023-03-23T10:43:14;8.27;;;2.63;;
60464;SDS011;46314;52.392;9.758;2023-03-23T10:45:40;5.97;;;2.20;;
60464;SDS011;46314;52.392;9.758;2023-03-23T10:48:12;6.63;;;2.80;;
60464;SDS011;46314;52.392;9.758;2023-03-23T10:50:41;7.45;;;2.97;;
60464;SDS011;46314;52.392;9.758;2023-03-23T10:53:11;4.22;;;2.20;;
60464;SDS011;46314;52.392;9.758;2023-03-23T10:55:40;5.50;;;2.20;;
60464;SDS011;46314;52.392;9.758;2023-03-23T10:58:08;8.32;;;2.90;;
60464;SDS011;46314;52.392;9.758;2023-03-23T11:00:39;6.40;;;2.90;;
60464;SDS011;46314;52.392;9.758;2023-03-23T11:03:17;4.90;;;2.70;;
60464;SDS011;46314;52.392;9.758;2023-03-23T11:05:50;5.00;;;2.50;;
60464;SDS011;46314;52.392;9.758;2023-03-23T11:08:18;8.27;;;2.50;;
60464;SDS011;46314;52.392;9.758;2023-03-23T11:10:47;4.80;;;2.40;;
60464;SDS011;46314;52.392;9.758;2023-03-23T11:13:16;5.13;;;2.25;;
60464;SDS011;46314;52.392;9.758;2023-03-23T11:15:43;3.58;;;2.30;;
60464;SDS011;46314;52.392;9.758;2023-03-23T11:18:10;8.77;;;2.85;;
60464;SDS011;46314;52.392;9.758;2023-03-23T11:20:37;4.07;;;2.08;;
60464;SDS011;46314;52.392;9.758;2023-03-23T11:23:10;7.63;;;2.95;;
60464;SDS011;46314;52.392;9.758;2023-03-23T11:25:50;3.10;;;2.42;;
60464;SDS011;46314;52.392;9.758;2023-03-23T11:31:06;6.22;;;3.22;;
60464;SDS011;46314;52.392;9.758;2023-03-23T11:33:35;5.57;;;2.55;;
60464;SDS011;46314;52.392;9.758;2023-03-23T11:36:04;6.20;;;2.40;;
60464;SDS011;46314;52.392;9.758;2023-03-23T11:38:31;6.85;;;2.45;;
60464;SDS011;46314;52.392;9.758;2023-03-23T11:40:58;4.57;;;2.72;;
60464;SDS011;46314;52.392;9.758;2023-03-23T11:43:25;8.00;;;2.55;;
60464;SDS011;46314;52.392;9.758;2023-03-23T11:45:56;6.72;;;2.38;;
60464;SDS011;46314;52.392;9.758;2023-03-23T11:48:28;5.75;;;3.17;;
60464;SDS011;46314;52.392;9.758;2023-03-23T11:51:01;5.97;;;2.67;;
60464;SDS011;46314;52.392;9.758;2023-03-23T11:53:32;4.57;;;2.90;;
60464;SDS011;46314;52.392;9.758;2023-03-23T11:56:07;7.10;;;2.58;;
60464;SDS011;46314;52.392;9.758;2023-03-23T11:58:38;9.57;;;2.95;;
60464;SDS011;46314;52.392;9.758;2023-03-23T12:01:09;5.85;;;2.63;;
60464;SDS011;46314;52.392;9.758;2023-03-23T12:03:42;9.05;;;3.65;;
60464;SDS011;46314;52.392;9.758;2023-03-23T12:06:19;8.15;;;3.35;;
60464;SDS011;46314;52.392;9.758;2023-03-23T12:08:54;6.07;;;2.95;;
60464;SDS011;46314;52.392;9.758;2023-03-23T12:11:28;5.22;;;2.45;;
60464;SDS011;46314;52.392;9.758;2023-03-23T12:14:03;4.40;;;2.72;;
60464;SDS011;46314;52.392;9.758;2023-03-23T12:16:46;8.07;;;2.85;;
60464;SDS011;46314;52.392;9.758;2023-03-23T12:19:19;5.35;;;2.72;;
60464;SDS011;46314;52.392;9.758;2023-03-23T12:21:53;3.72;;;2.35;;
60464;SDS011;46314;52.392;9.758;2023-03-23T12:24:32;4.40;;;2.40;;
60464;SDS011;46314;52.392;9.758;2023-03-23T12:27:07;2.67;;;2.00;;
60464;SDS011;46314;52.392;9.758;2023-03-23T12:29:42;4.97;;;2.47;;
60464;SDS011;46314;52.392;9.758;2023-03-23T12:32:33;4.68;;;2.90;;
60464;SDS011;46314;52.392;9.758;2023-03-23T12:35:13;3.92;;;1.70;;
60464;SDS011;46314;52.392;9.758;2023-03-23T12:37:50;3.13;;;1.67;;
60464;SDS011;46314;52.392;9.758;2023-03-23T12:43:17;3.92;;;2.03;;
60464;SDS011;46314;52.392;9.758;2023-03-23T12:45:55;6.75;;;2.72;;
60464;SDS011;46314;52.392;9.758;2023-03-23T12:48:29;2.97;;;1.63;;
60464;SDS011;46314;52.392;9.758;2023-03-23T12:51:03;2.55;;;1.60;;
60464;SDS011;46314;52.392;9.758;2023-03-23T12:53:36;4.53;;;2.58;;
60464;SDS011;46314;52.392;9.758;2023-03-23T12:56:12;4.43;;;1.95;;
60464;SDS011;46314;52.392;9.758;2023-03-23T12:58:43;2.33;;;1.58;;
60464;SDS011;46314;52.392;9.758;2023-03-23T13:01:11;2.35;;;1.15;;
60464;SDS011;46314;52.392;9.758;2023-03-23T13:03:44;2.35;;;1.35;;
60464;SDS011;46314;52.392;9.758;2023-03-23T13:06:15;2.60;;;1.52;;
60464;SDS011;46314;52.392;9.758;2023-03-23T13:08:55;4.43;;;1.30;;
60464;SDS011;46314;52.392;9.758;2023-03-23T13:11:25;2.58;;;1.10;;
60464;SDS011;46314;52.392;9.758;2023-03-23T13:13:59;2.92;;;1.20;;
60464;SDS011;46314;52.392;9.758;2023-03-23T13:16:32;1.65;;;0.73;;
60464;SDS011;46314;52.392;9.758;2023-03-23T13:19:08;2.05;;;1.08;;
60464;SDS011;46314;52.392;9.758;2023-03-23T13:24:09;2.30;;;1.30;;
60464;SDS011;46314;52.392;9.758;2023-03-23T13:26:37;4.22;;;1.80;;
60464;SDS011;46314;52.392;9.758;2023-03-23T13:29:05;2.35;;;0.98;;
60464;SDS011;46314;52.392;9.758;2023-03-23T13:31:34;2.60;;;1.10;;
60464;SDS011;46314;52.392;9.758;2023-03-23T13:34:02;2.80;;;0.93;;
60464;SDS011;46314;52.392;9.758;2023-03-23T13:36:31;2.53;;;0.88;;
60464;SDS011;46314;52.392;9.758;2023-03-23T13:39:01;1.83;;;0.85;;
60464;SDS011;46314;52.392;9.758;2023-03-23T13:41:29;2.45;;;1.10;;
60464;SDS011;46314;52.392;9.758;2023-03-23T13:44:04;4.28;;;0.90;;
60464;SDS011;46314;52.392;9.758;2023-03-23T13:49:15;1.38;;;0.90;;
60464;SDS011;46314;52.392;9.758;2023-03-23T13:51:59;1.70;;;0.70;;
60464;SDS011;46314;52.392;9.758;2023-03-23T13:54:42;1.80;;;0.75;;
60464;SDS011;46314;52.392;9.758;2023-03-23T13:57:20;2.58;;;0.93;;
60464;SDS011;46314;52.392;9.758;2023-03-23T13:59:55;2.05;;;0.57;;
60464;SDS011;46314;52.392;9.758;2023-03-23T14:02:33;1.88;;;0.85;;
60464;SDS011;46314;52.392;9.758;2023-03-23T14:05:08;2.13;;;0.85;;
60464;SDS011;46314;52.392;9.758;2023-03-23T14:07:59;1.35;;;0.60;;
60464;SDS011;46314;52.392;9.758;2023-03-23T14:10:36;1.25;;;0.90;;
60464;SDS011;46314;52.392;9.758;2023-03-23T14:13:06;1.33;;;0.73;;
60464;SDS011;46314;52.392;9.758;2023-03-23T14:15:41;2.03;;;0.70;;
60464;SDS011;46314;52.392;9.758;2023-03-23T14:18:11;2.05;;;0.77;;
60464;SDS011;46314;52.392;9.758;2023-03-23T14:20:39;3.17;;;1.63;;
60464;SDS011;46314;52.392;9.758;2023-03-23T14:23:13;2.60;;;1.30;;
60464;SDS011;46314;52.392;9.758;2023-03-23T14:25:40;2.42;;;1.00;;
60464;SDS011;46314;52.392;9.758;2023-03-23T14:28:15;3.42;;;1.00;;
60464;SDS011;46314;52.392;9.758;2023-03-23T14:30:42;3.33;;;1.33;;
60464;SDS011;46314;52.392;9.758;2023-03-23T14:33:10;2.95;;;0.90;;
60464;SDS011;46314;52.392;9.758;2023-03-23T14:35:37;2.58;;;1.23;;
60464;SDS011;46314;52.392;9.758;2023-03-23T14:38:09;1.98;;;1.33;;
60464;SDS011;46314;52.392;9.758;2023-03-23T14:43:07;1.50;;;1.00;;
60464;SDS011;46314;52.392;9.758;2023-03-23T14:45:35;4.93;;;1.60;;
60464;SDS011;46314;52.392;9.758;2023-03-23T14:48:01;2.22;;;1.17;;
60464;SDS011;46314;52.392;9.758;2023-03-23T14:50:29;2.65;;;1.48;;
60464;SDS011;46314;52.392;9.758;2023-03-23T14:53:02;3.13;;;1.40;;
60464;SDS011;46314;52.392;9.758;2023-03-23T14:58:07;2.13;;;1.23;;
60464;SDS011;46314;52.392;9.758;2023-03-23T15:00:35;5.38;;;2.25;;
60464;SDS011;46314;52.392;9.758;2023-03-23T15:03:04;2.40;;;1.52;;
60464;SDS011;46314;52.392;9.758;2023-03-23T15:05:33;6.10;;;1.98;;
60464;SDS011;46314;52.392;9.758;2023-03-23T15:08:00;2.53;;;1.70;;
60464;SDS011;46314;52.392;9.758;2023-03-23T15:10:28;2.95;;;1.23;;
60464;SDS011;46314;52.392;9.758;2023-03-23T15:12:55;3.88;;;1.60;;